Time;durP1;ratioP1;P1;durP2;ratioP2;P2;SDS_P1;SDS_P2;PMS_P1;PMS_P2;Temp;Humidity;BMP_temperature;BMP_pressure;BME280_temperature;BME280_humidity;BME280_pressure;Samples;Min_cycle;Max_cycle;Signal;HPM_P1;HPM_P2
2023/03/28 00:00:40;;;;;;;2.77;2.20;;;;;;;3.91;73.17;96165.97;6217779;23;20193;-86
2023/03/28 00:03:06;;;;;;;3.30;2.57;;;;;;;3.94;72.54;96173.38;6219217;23;20180;-85
2023/03/28 00:05:33;;;;;;;2.77;2.37;;;;;;;3.88;73.06;96177.19;6219024;23;20180;-86
2023/03/28 00:07:59;;;;;;;3.50;2.20;;;;;;;3.93;72.43;96174.28;6218906;23;20174;-86
2023/03/28 00:10:28;;;;;;;2.87;2.50;;;;;;;3.90;72.15;96174.53;6219289;23;20259;-87
2023/03/28 00:12:54;;;;;;;2.57;2.20;;;;;;;3.93;72.36;96169.19;6219874;23;20272;-87
2023/03/28 00:15:21;;;;;;;2.80;2.30;;;;;;;3.94;72.23;96176.72;6219926;23;20178;-86
2023/03/28 00:17:51;;;;;;;2.70;2.50;;;;;;;3.95;72.35;96173.25;6220304;23;20208;-87
2023/03/28 00:20:18;;;;;;;4.33;2.60;;;;;;;3.97;72.00;96183.31;6218461;23;20263;-85
2023/03/28 00:22:45;;;;;;;2.60;2.40;;;;;;;3.99;71.95;96182.28;6217765;23;20695;-86
2023/03/28 00:25:12;;;;;;;2.70;2.23;;;;;;;4.04;71.74;96181.91;6218967;23;20178;-85
2023/03/28 00:27:40;;;;;;;2.63;2.30;;;;;;;4.04;72.16;96185.25;6218851;23;20812;-87
2023/03/28 00:30:08;;;;;;;2.80;2.43;;;;;;;3.98;71.97;96197.69;6219052;23;20198;-86
2023/03/28 00:32:35;;;;;;;2.50;2.20;;;;;;;4.02;71.08;96186.31;6218315;23;20208;-86
2023/03/28 00:35:01;;;;;;;2.80;2.40;;;;;;;4.02;71.42;96193.97;6218610;23;20592;-86
2023/03/28 00:37:28;;;;;;;2.83;2.63;;;;;;;4.06;71.19;96193.56;6219556;23;20170;-87
2023/03/28 00:39:55;;;;;;;2.73;2.53;;;;;;;4.00;71.85;96204.28;6218220;23;20699;-85
2023/03/28 00:42:23;;;;;;;3.73;2.77;;;;;;;3.94;72.04;96206.47;6218908;23;20189;-85
2023/03/28 00:44:52;;;;;;;3.00;2.70;;;;;;;4.04;71.40;96197.97;6219241;23;20182;-86
2023/03/28 00:47:30;;;;;;;2.90;2.53;;;;;;;4.04;71.32;96204.84;6218870;23;20178;-86
2023/03/28 00:50:01;;;;;;;3.13;2.57;;;;;;;3.99;71.57;96204.38;6218989;23;20552;-86
2023/03/28 00:52:32;;;;;;;3.43;2.90;;;;;;;3.98;71.35;96203.59;6218738;23;20162;-86
2023/03/28 00:55:00;;;;;;;3.27;2.70;;;;;;;4.00;71.39;96206.00;6219098;23;20158;-87
2023/03/28 00:57:28;;;;;;;4.27;2.50;;;;;;;4.01;71.15;96210.19;6218419;23;20184;-87
2023/03/28 00:59:56;;;;;;;3.40;2.60;;;;;;;3.99;71.45;96210.28;6217741;23;20197;-85
2023/03/28 01:02:22;;;;;;;4.30;3.30;;;;;;;3.83;71.64;96209.06;6218041;23;20177;-85
2023/03/28 01:04:56;;;;;;;3.43;3.13;;;;;;;3.84;71.83;96206.41;6218482;23;20173;-85
2023/03/28 01:07:23;;;;;;;4.30;3.00;;;;;;;3.90;71.96;96217.84;6217695;23;20605;-85
2023/03/28 01:09:51;;;;;;;3.70;3.03;;;;;;;3.97;71.46;96204.50;6218257;23;20198;-86
2023/03/28 01:12:19;;;;;;;4.87;3.00;;;;;;;3.94;71.52;96209.03;6217721;23;20201;-86
2023/03/28 01:14:47;;;;;;;4.47;3.50;;;;;;;3.98;71.56;96206.13;6218610;23;20177;-87
2023/03/28 01:17:15;;;;;;;4.47;3.47;;;;;;;4.01;71.46;96202.53;6218681;23;20178;-85
2023/03/28 01:19:58;;;;;;;3.80;3.40;;;;;;;3.94;71.45;96201.38;6218216;23;20197;-87
2023/03/28 01:23:09;;;;;;;3.60;3.30;;;;;;;3.97;71.49;96211.34;6219568;23;20167;-86
2023/03/28 01:26:03;;;;;;;3.33;2.93;;;;;;;3.95;72.19;96215.75;6220119;23;20637;-86
2023/03/28 01:28:50;;;;;;;3.93;3.63;;;;;;;4.01;71.90;96215.28;6218993;23;20165;-87
2023/03/28 01:31:36;;;;;;;4.37;3.47;;;;;;;3.93;72.07;96213.31;6218992;23;20583;-85
2023/03/28 01:34:49;;;;;;;4.00;3.53;;;;;;;3.99;71.50;96212.84;6219433;23;20474;-86
2023/03/28 01:37:30;;;;;;;4.87;3.87;;;;;;;3.89;71.87;96218.75;6218701;23;20198;-86
2023/03/28 01:40:10;;;;;;;4.07;3.60;;;;;;;3.83;72.42;96214.16;6219188;23;20204;-86
2023/03/28 01:42:49;;;;;;;3.87;3.57;;;;;;;3.87;72.13;96218.88;6218398;23;20191;-86
2023/03/28 01:45:22;;;;;;;4.27;3.80;;;;;;;3.87;72.06;96223.97;6218944;23;20162;-86
2023/03/28 01:47:54;;;;;;;5.40;3.90;;;;;;;3.88;72.08;96224.78;6219341;23;20169;-87
2023/03/28 01:50:28;;;;;;;3.87;3.47;;;;;;;3.86;72.01;96226.63;6218442;23;20194;-85
2023/03/28 01:53:03;;;;;;;5.13;3.80;;;;;;;3.84;71.78;96224.25;6219248;23;20160;-85
2023/03/28 01:55:37;;;;;;;5.00;3.70;;;;;;;3.76;72.71;96224.00;6218711;23;20161;-87
2023/03/28 01:58:07;;;;;;;4.07;3.60;;;;;;;3.68;72.20;96228.88;6218961;23;20169;-87
2023/03/28 02:00:42;;;;;;;4.43;3.90;;;;;;;3.66;72.33;96223.91;6217815;23;20193;-85
2023/03/28 02:03:17;;;;;;;4.93;4.13;;;;;;;3.66;72.13;96229.00;6218829;23;20168;-85
2023/03/28 02:05:45;;;;;;;4.60;4.10;;;;;;;3.63;72.42;96236.06;6219448;23;20470;-86
2023/03/28 02:08:13;;;;;;;5.00;4.50;;;;;;;3.60;72.21;96239.66;6219856;23;20181;-85
2023/03/28 02:10:43;;;;;;;5.00;4.00;;;;;;;3.58;72.32;96238.97;6218278;23;20198;-87
2023/03/28 02:13:14;;;;;;;4.60;3.80;;;;;;;3.55;72.11;96238.38;6218664;23;20239;-86
2023/03/28 02:15:42;;;;;;;4.07;3.67;;;;;;;3.50;72.42;96240.47;6219113;23;20165;-85
2023/03/28 02:18:15;;;;;;;5.13;4.43;;;;;;;3.53;72.53;96233.41;6218818;23;20178;-86
2023/03/28 02:20:45;;;;;;;4.17;3.77;;;;;;;3.47;72.41;96239.78;6218372;23;20194;-85
2023/03/28 02:23:17;;;;;;;5.10;4.47;;;;;;;3.50;72.65;96240.47;6218577;23;20173;-87
2023/03/28 02:25:43;;;;;;;5.00;4.10;;;;;;;3.51;72.37;96240.34;6219710;23;20161;-85
2023/03/28 02:28:11;;;;;;;4.33;3.90;;;;;;;3.43;73.10;96250.31;6218741;23;20184;-86
2023/03/28 02:30:38;;;;;;;5.57;3.90;;;;;;;3.42;72.21;96259.69;6218357;23;20203;-84
2023/03/28 02:33:08;;;;;;;6.93;4.17;;;;;;;3.42;72.07;96248.72;6218378;23;20212;-87
2023/03/28 02:35:45;;;;;;;4.87;4.37;;;;;;;3.41;72.13;96258.06;6218778;23;20650;-85
2023/03/28 02:38:23;;;;;;;4.90;4.40;;;;;;;3.40;72.20;96256.47;6218791;23;20212;-85
2023/03/28 02:40:59;;;;;;;4.73;3.93;;;;;;;3.40;71.91;96248.00;6217818;23;20200;-85
2023/03/28 02:43:50;;;;;;;6.00;4.10;;;;;;;3.41;71.88;96255.53;6218430;23;20177;-87
2023/03/28 02:46:27;;;;;;;4.70;4.20;;;;;;;3.42;71.73;96246.16;6218414;23;20216;-87
2023/03/28 02:49:20;;;;;;;6.10;4.33;;;;;;;3.35;71.88;96253.44;6218590;23;20885;-86
2023/03/28 02:51:57;;;;;;;6.43;4.50;;;;;;;3.34;71.98;96258.63;6213685;23;20229;-86
2023/03/28 02:54:34;;;;;;;5.27;4.20;;;;;;;3.36;72.11;96259.34;6218895;23;20169;-86
2023/03/28 02:57:07;;;;;;;4.77;4.27;;;;;;;3.24;72.37;96267.91;6218554;23;20630;-87
2023/03/28 02:59:40;;;;;;;5.27;4.30;;;;;;;3.27;72.44;96263.38;6217144;23;20202;-85
2023/03/28 03:02:08;;;;;;;5.33;4.30;;;;;;;3.32;71.82;96260.50;6217702;23;20189;-87
2023/03/28 03:04:34;;;;;;;4.57;4.17;;;;;;;3.28;71.88;96259.91;6217796;23;20185;-85
2023/03/28 03:07:01;;;;;;;4.23;3.87;;;;;;;3.27;72.14;96265.13;6218430;23;20177;-86
2023/03/28 03:09:27;;;;;;;5.37;4.27;;;;;;;3.17;72.17;96269.28;6217619;23;20664;-88
2023/03/28 03:11:55;;;;;;;7.47;3.90;;;;;;;3.17;72.25;96266.72;6217878;23;20208;-87
2023/03/28 03:14:22;;;;;;;4.83;4.33;;;;;;;3.17;72.17;96266.72;6217537;23;20184;-86
2023/03/28 03:16:50;;;;;;;4.50;4.00;;;;;;;3.17;71.96;96269.28;6216793;23;20227;-86
2023/03/28 03:19:17;;;;;;;6.07;4.23;;;;;;;3.20;72.04;96272.41;6217954;23;20188;-85
2023/03/28 03:21:43;;;;;;;5.57;4.30;;;;;;;3.22;71.80;96273.09;6215912;23;20701;-86
2023/03/28 03:24:09;;;;;;;5.80;4.70;;;;;;;3.20;71.86;96276.69;6217902;23;20181;-88
2023/03/28 03:26:36;;;;;;;5.17;4.03;;;;;;;3.23;71.65;96277.28;6218267;23;20184;-87
2023/03/28 03:29:04;;;;;;;4.83;4.17;;;;;;;3.20;71.93;96276.69;6217887;23;20174;-87
2023/03/28 03:31:31;;;;;;;5.57;4.30;;;;;;;3.18;71.17;96274.25;6218641;23;20197;-86
2023/03/28 03:33:57;;;;;;;6.23;4.07;;;;;;;3.25;71.43;96274.63;6219582;23;20177;-86
2023/03/28 03:36:25;;;;;;;4.90;4.00;;;;;;;3.17;71.58;96284.53;6220214;23;20182;-88
2023/03/28 03:38:52;;;;;;;6.17;4.20;;;;;;;3.15;71.33;96282.09;6220564;23;20173;-87
2023/03/28 03:41:18;;;;;;;5.40;4.33;;;;;;;3.20;71.05;96284.31;6219828;23;20205;-86
2023/03/28 03:43:45;;;;;;;6.00;4.40;;;;;;;3.15;71.44;96291.47;6219918;23;20173;-87
2023/03/28 03:46:12;;;;;;;4.80;4.30;;;;;;;3.19;71.21;96292.88;6219026;23;20223;-87
2023/03/28 03:48:39;;;;;;;6.10;4.47;;;;;;;3.20;71.47;96302.13;6220277;23;20544;-86
2023/03/28 03:51:06;;;;;;;4.87;4.37;;;;;;;3.22;71.00;96300.28;6220468;23;20213;-87
2023/03/28 03:53:33;;;;;;;4.47;4.00;;;;;;;3.23;71.26;96296.81;6219588;23;20446;-86
2023/03/28 03:56:00;;;;;;;6.93;4.27;;;;;;;3.18;71.38;96303.97;6219810;23;20185;-86
2023/03/28 03:58:27;;;;;;;5.20;4.30;;;;;;;3.10;71.94;96312.97;6219571;23;20184;-85
2023/03/28 04:00:53;;;;;;;5.63;4.50;;;;;;;3.17;71.21;96312.53;6217424;23;20205;-88
2023/03/28 04:03:21;;;;;;;4.87;4.37;;;;;;;3.08;71.65;96319.91;6218778;23;20182;-86
2023/03/28 04:05:47;;;;;;;5.20;4.37;;;;;;;3.04;71.79;96310.09;6219174;23;20468;-87
2023/03/28 04:08:14;;;;;;;5.87;4.13;;;;;;;3.07;71.75;96323.41;6218976;23;20205;-86
2023/03/28 04:10:41;;;;;;;7.27;4.50;;;;;;;3.11;71.45;96321.41;6219007;23;20197;-86
2023/03/28 04:13:07;;;;;;;7.50;3.90;;;;;;;3.01;71.82;96318.75;6217430;23;20200;-85
2023/03/28 04:15:33;;;;;;;4.57;4.13;;;;;;;3.05;70.96;96324.44;6219154;23;20207;-87
2023/03/28 04:18:00;;;;;;;7.20;4.90;;;;;;;2.95;71.71;96324.28;6218596;23;20768;-87
2023/03/28 04:20:28;;;;;;;6.73;4.70;;;;;;;3.01;71.80;96326.38;6218678;23;20224;-87
2023/03/28 04:22:55;;;;;;;4.90;4.50;;;;;;;2.99;71.91;96333.31;6218972;23;20231;-88
2023/03/28 04:25:23;;;;;;;6.63;5.07;;;;;;;3.02;71.07;96332.28;6219189;23;20258;-88
2023/03/28 04:27:53;;;;;;;4.90;4.40;;;;;;;3.02;71.03;96334.81;6218348;23;20209;-86
2023/03/28 04:30:20;;;;;;;6.07;4.70;;;;;;;2.99;71.49;96337.59;6218098;23;20593;-86
2023/03/28 04:32:49;;;;;;;6.43;4.20;;;;;;;2.99;71.03;96340.13;6218760;23;20194;-88
2023/03/28 04:35:16;;;;;;;6.87;4.80;;;;;;;2.99;71.34;96332.50;6219694;23;20201;-88
2023/03/28 04:37:43;;;;;;;6.67;4.90;;;;;;;3.01;71.01;96334.00;6218828;23;20208;-86
2023/03/28 04:40:10;;;;;;;5.30;4.80;;;;;;;2.98;71.08;96334.22;6219394;23;20198;-88
2023/03/28 04:42:37;;;;;;;7.60;4.80;;;;;;;2.99;70.82;96343.47;6218077;23;20188;-88
2023/03/28 04:45:05;;;;;;;6.23;5.10;;;;;;;2.99;70.71;96338.41;6219683;23;20672;-88
2023/03/28 04:47:31;;;;;;;5.77;4.70;;;;;;;2.95;70.86;96339.53;6219860;23;20185;-87
2023/03/28 04:49:58;;;;;;;6.83;4.70;;;;;;;2.97;70.62;96344.50;6219212;23;20221;-87
2023/03/28 04:52:24;;;;;;;6.30;4.70;;;;;;;2.99;70.44;96347.75;6219452;23;20224;-88
2023/03/28 04:54:52;;;;;;;6.13;5.10;;;;;;;2.96;70.98;96348.78;6219772;23;20173;-86
2023/03/28 04:57:18;;;;;;;5.40;4.67;;;;;;;2.94;70.93;96340.44;6219408;23;20177;-87
2023/03/28 04:59:45;;;;;;;5.70;4.53;;;;;;;2.93;71.03;96353.28;6219179;23;20197;-87
2023/03/28 05:02:11;;;;;;;5.73;5.13;;;;;;;2.84;71.15;96357.31;6218158;23;20264;-86
2023/03/28 05:04:38;;;;;;;6.50;4.90;;;;;;;2.87;71.02;96356.28;6219192;23;20349;-86
2023/03/28 05:07:04;;;;;;;5.80;4.80;;;;;;;2.85;71.23;96353.84;6219963;23;20496;-87
2023/03/28 05:09:32;;;;;;;6.67;5.13;;;;;;;2.83;70.91;96359.97;6219591;23;20197;-87
2023/03/28 05:12:00;;;;;;;6.87;4.80;;;;;;;2.84;70.71;96361.59;6219251;23;20198;-86
2023/03/28 05:14:26;;;;;;;5.23;4.40;;;;;;;2.86;70.95;96365.66;6219520;23;20181;-86
2023/03/28 05:16:52;;;;;;;6.30;4.63;;;;;;;2.90;70.69;96368.75;6218477;23;20503;-86
2023/03/28 05:19:19;;;;;;;5.83;4.63;;;;;;;2.92;70.26;96370.25;6219172;23;20181;-87
2023/03/28 05:21:46;;;;;;;5.40;4.87;;;;;;;2.96;75.04;96376.75;6218317;23;20170;-85
2023/03/28 05:24:12;;;;;;;7.67;5.17;;;;;;;2.99;71.66;96385.91;6219136;23;20170;-85
2023/03/28 05:26:39;;;;;;;6.90;5.10;;;;;;;2.95;70.97;96375.13;6219504;23;20181;-86
2023/03/28 05:29:07;;;;;;;9.37;7.07;;;;;;;2.95;70.34;96379.41;6218991;23;20196;-86
2023/03/28 05:31:33;;;;;;;8.93;6.07;;;;;;;2.95;70.03;96374.31;6219678;23;20177;-87
2023/03/28 05:33:59;;;;;;;6.67;5.03;;;;;;;2.99;69.90;96384.19;6219301;23;20260;-85
2023/03/28 05:36:26;;;;;;;6.30;5.00;;;;;;;3.02;70.00;96389.06;6218679;23;20181;-87
2023/03/28 05:38:52;;;;;;;5.90;4.90;;;;;;;2.92;70.43;96392.34;6219756;23;20200;-87
2023/03/28 05:41:19;;;;;;;7.50;4.73;;;;;;;2.93;70.03;96394.78;6217853;23;20708;-86
2023/03/28 05:43:45;;;;;;;9.00;5.47;;;;;;;2.88;70.00;96391.78;6219378;23;20173;-87
2023/03/28 05:46:13;;;;;;;5.50;4.90;;;;;;;2.93;70.29;96393.97;6218907;23;20672;-87
2023/03/28 05:48:39;;;;;;;6.43;5.00;;;;;;;2.95;69.79;96400.56;6218397;23;20243;-85
2023/03/28 05:51:08;;;;;;;5.93;5.17;;;;;;;3.05;70.14;96404.09;6218145;23;20208;-87
2023/03/28 05:53:35;;;;;;;7.63;5.47;;;;;;;3.06;69.71;96408.25;6217451;23;20204;-85
2023/03/28 05:56:04;;;;;;;7.70;5.00;;;;;;;3.00;69.26;96411.25;6218600;23;20178;-85
2023/03/28 05:58:30;;;;;;;8.87;4.73;;;;;;;3.07;69.91;96416.72;6217151;23;20173;-86
2023/03/28 06:00:57;;;;;;;6.50;4.67;;;;;;;3.14;69.24;96417.88;6217375;23;20193;-85
2023/03/28 06:03:26;;;;;;;6.60;4.67;;;;;;;3.26;69.25;96416.19;6217453;23;20232;-86
2023/03/28 06:05:53;;;;;;;7.23;4.90;;;;;;;3.22;68.58;96415.59;6218163;23;20687;-87
2023/03/28 06:08:19;;;;;;;6.60;4.87;;;;;;;3.26;68.72;96417.00;6218805;23;20177;-86
2023/03/28 06:10:46;;;;;;;5.97;4.90;;;;;;;3.25;68.44;96425.56;6217772;23;20201;-87
2023/03/28 06:13:12;;;;;;;5.67;4.30;;;;;;;3.19;68.96;96425.19;6217580;23;20196;-86
2023/03/28 06:15:39;;;;;;;5.73;4.87;;;;;;;3.23;69.32;96434.22;6217148;23;20177;-88
2023/03/28 06:18:05;;;;;;;8.87;4.50;;;;;;;3.34;68.81;96435.06;6217545;23;20413;-86
2023/03/28 06:20:33;;;;;;;10.97;4.67;;;;;;;3.29;68.77;96439.66;6218581;23;20189;-86
2023/03/28 06:23:00;;;;;;;6.50;4.50;;;;;;;3.40;68.77;96433.81;6217063;23;20232;-87
2023/03/28 06:25:27;;;;;;;8.93;4.87;;;;;;;3.36;68.63;96443.41;6217321;23;20177;-86
2023/03/28 06:27:54;;;;;;;6.63;5.03;;;;;;;3.37;68.23;96439.94;6216384;23;20182;-85
2023/03/28 06:30:20;;;;;;;7.53;4.63;;;;;;;3.30;68.37;96446.38;6226727;23;20273;-86
2023/03/28 06:32:46;;;;;;;4.73;4.20;;;;;;;3.35;68.11;96440.97;6221224;23;20198;-86
2023/03/28 06:35:13;;;;;;;6.23;4.30;;;;;;;3.38;67.79;96439.00;6217054;23;20177;-85
2023/03/28 06:37:40;;;;;;;6.63;4.90;;;;;;;3.36;67.90;96452.78;6217427;23;20173;-86
2023/03/28 06:40:08;;;;;;;6.10;4.40;;;;;;;3.42;67.48;96452.34;6217375;23;20229;-86
2023/03/28 06:42:35;;;;;;;5.97;4.37;;;;;;;3.45;67.82;96445.28;6216056;23;20185;-85
2023/03/28 06:45:02;;;;;;;7.07;4.90;;;;;;;3.52;67.88;96452.47;6215673;23;20251;-87
2023/03/28 06:47:31;;;;;;;5.47;4.40;;;;;;;3.65;67.48;96450.66;6216000;23;20237;-86
2023/03/28 06:49:57;;;;;;;6.77;4.60;;;;;;;3.91;66.42;96458.91;6215886;23;20228;-86
2023/03/28 06:52:23;;;;;;;5.80;4.40;;;;;;;4.04;65.94;96462.97;6215169;23;20200;-86
2023/03/28 06:54:51;;;;;;;4.93;4.23;;;;;;;4.05;65.14;96467.13;6216428;23;20177;-86
2023/03/28 06:57:18;;;;;;;6.97;4.10;;;;;;;4.03;64.90;96473.31;6215512;23;20687;-85
2023/03/28 06:59:44;;;;;;;8.40;4.47;;;;;;;3.83;65.54;96476.50;6215542;23;20197;-85
2023/03/28 07:02:11;;;;;;;8.13;4.17;;;;;;;3.90;65.91;96477.66;6214027;23;20201;-85
2023/03/28 07:04:38;;;;;;;4.80;3.97;;;;;;;4.03;65.80;96489.41;6215538;23;20184;-85
2023/03/28 07:07:04;;;;;;;5.03;4.00;;;;;;;4.05;65.39;96491.81;6217009;23;20548;-85
2023/03/28 07:09:31;;;;;;;5.10;3.90;;;;;;;4.11;64.73;96487.06;6216118;23;20193;-86
2023/03/28 07:11:59;;;;;;;7.10;4.23;;;;;;;4.13;64.35;96492.88;6216772;23;20173;-86
2023/03/28 07:14:27;;;;;;;4.33;3.63;;;;;;;4.32;63.89;96497.41;6217933;23;20205;-85
2023/03/28 07:16:53;;;;;;;5.87;4.20;;;;;;;4.78;63.47;96496.47;6218504;23;20181;-85
2023/03/28 07:19:21;;;;;;;5.37;3.53;;;;;;;5.24;61.08;96490.31;6217190;23;20177;-87
2023/03/28 07:21:47;;;;;;;6.07;3.83;;;;;;;5.71;60.77;96489.88;6218346;23;20181;-87
2023/03/28 07:24:14;;;;;;;4.77;3.77;;;;;;;5.98;58.48;96497.06;6220746;23;20212;-87
2023/03/28 07:26:40;;;;;;;4.60;3.60;;;;;;;6.24;57.96;96498.28;6220207;23;20177;-87
2023/03/28 07:29:08;;;;;;;6.43;3.90;;;;;;;6.27;57.43;96501.53;6219532;23;20170;-87
2023/03/28 07:31:34;;;;;;;4.33;3.47;;;;;;;6.19;57.62;96505.53;6219018;23;20508;-85
2023/03/28 07:34:01;;;;;;;4.30;3.40;;;;;;;6.25;57.10;96504.22;6218318;23;20197;-85
2023/03/28 07:36:29;;;;;;;4.97;3.50;;;;;;;6.02;58.95;96512.97;6218331;23;20182;-86
2023/03/28 07:38:55;;;;;;;3.87;3.20;;;;;;;5.77;59.13;96521.81;6219129;23;20184;-87
2023/03/28 07:41:22;;;;;;;6.70;3.67;;;;;;;5.49;59.29;96518.88;6216315;23;20205;-85
2023/03/28 07:43:48;;;;;;;4.77;3.10;;;;;;;5.33;58.79;96522.78;6218415;23;20556;-88
2023/03/28 07:46:16;;;;;;;4.50;3.20;;;;;;;5.13;58.59;96514.94;6219415;23;20256;-87
2023/03/28 07:48:45;;;;;;;6.40;2.93;;;;;;;5.09;59.06;96521.22;6219455;23;20174;-86
2023/03/28 07:51:11;;;;;;;5.30;3.07;;;;;;;5.41;57.92;96525.53;6219798;23;20198;-87
2023/03/28 07:53:38;;;;;;;4.93;2.87;;;;;;;5.33;57.82;96523.59;6218432;23;20239;-86
2023/03/28 07:56:09;;;;;;;5.67;3.13;;;;;;;5.34;58.65;96526.97;6218182;23;20188;-85
2023/03/28 07:58:35;;;;;;;7.03;2.80;;;;;;;5.65;58.19;96525.31;6219025;23;20524;-86
2023/03/28 08:01:05;;;;;;;3.67;2.90;;;;;;;5.80;56.55;96532.56;6217820;23;20200;-87
2023/03/28 08:03:33;;;;;;;4.80;2.57;;;;;;;5.91;55.38;96529.19;6217966;23;20260;-85
2023/03/28 08:06:01;;;;;;;4.80;3.37;;;;;;;6.24;54.90;96526.41;6219690;23;20178;-86
2023/03/28 08:08:29;;;;;;;8.87;3.57;;;;;;;6.43;55.38;96528.25;6219405;23;20237;-85
2023/03/28 08:10:55;;;;;;;4.73;2.60;;;;;;;6.54;53.70;96533.28;6219348;23;20205;-86
2023/03/28 08:13:21;;;;;;;4.63;2.80;;;;;;;6.90;52.55;96531.97;6219301;23;20263;-86
2023/03/28 08:15:49;;;;;;;4.67;3.07;;;;;;;6.64;54.62;96533.34;6220024;23;20243;-88
2023/03/28 08:18:19;;;;;;;4.03;2.60;;;;;;;6.61;52.41;96548.13;6220844;23;20397;-87
2023/03/28 08:20:47;;;;;;;4.77;2.60;;;;;;;6.47;51.98;96542.44;6220209;23;20201;-87
2023/03/28 08:23:14;;;;;;;3.50;2.67;;;;;;;7.03;51.77;96539.41;6218462;23;20173;-86
2023/03/28 08:25:41;;;;;;;3.90;2.30;;;;;;;7.07;51.30;96545.88;6220229;23;20585;-86
2023/03/28 08:28:08;;;;;;;4.20;2.10;;;;;;;7.66;50.02;96541.66;6220210;23;20212;-87
2023/03/28 08:30:36;;;;;;;3.87;2.43;;;;;;;7.81;48.87;96548.78;6219951;23;20190;-87
2023/03/28 08:33:03;;;;;;;4.00;2.60;;;;;;;7.98;48.48;96540.41;6219773;23;20223;-87
2023/03/28 08:35:29;;;;;;;3.73;2.70;;;;;;;7.89;49.96;96545.53;6219096;23;20241;-87
2023/03/28 08:37:57;;;;;;;6.63;2.70;;;;;;;7.26;49.47;96550.25;6219082;23;20181;-86
2023/03/28 08:40:27;;;;;;;2.90;2.47;;;;;;;6.76;50.21;96557.88;6218851;23;20197;-87
2023/03/28 08:43:06;;;;;;;3.40;2.23;;;;;;;6.99;49.34;96553.41;6219273;23;20185;-88
2023/03/28 08:45:46;;;;;;;4.73;2.27;;;;;;;6.93;49.45;96551.34;6219186;23;20532;-86
2023/03/28 08:48:21;;;;;;;4.13;2.67;;;;;;;7.62;49.33;96548.78;6219391;23;20161;-86
2023/03/28 08:50:52;;;;;;;5.90;2.23;;;;;;;7.21;49.04;96553.19;6218833;23;20200;-88
2023/03/28 08:53:26;;;;;;;4.53;2.10;;;;;;;7.27;48.95;96554.41;6218254;23;20182;-86
2023/03/28 08:55:54;;;;;;;3.30;2.00;;;;;;;6.90;49.71;96551.63;6219116;23;20191;-87
2023/03/28 08:58:22;;;;;;;2.53;2.03;;;;;;;7.05;47.37;96552.06;6219986;23;20197;-86
2023/03/28 09:00:50;;;;;;;3.93;2.23;;;;;;;6.49;48.49;96558.47;6218763;23;20853;-86
2023/03/28 09:03:20;;;;;;;3.50;2.50;;;;;;;7.33;48.78;96550.50;6220245;23;20174;-86
2023/03/28 09:05:49;;;;;;;3.87;2.60;;;;;;;7.78;47.01;96561.88;6219652;23;20177;-87
2023/03/28 09:08:45;;;;;;;3.53;2.20;;;;;;;8.13;44.17;96553.63;6219220;23;20182;-87
2023/03/28 09:11:23;;;;;;;2.90;2.00;;;;;;;8.56;44.25;96553.16;6218264;23;20506;-88
2023/03/28 09:14:02;;;;;;;4.20;1.70;;;;;;;8.93;42.66;96542.06;6218826;23;20182;-88
2023/03/28 09:16:44;;;;;;;2.80;1.87;;;;;;;9.30;42.17;96540.22;6220136;23;20189;-86
2023/03/28 09:19:27;;;;;;;2.90;1.63;;;;;;;9.47;39.17;96535.25;6220796;23;20157;-87
2023/03/28 09:22:10;;;;;;;2.40;1.50;;;;;;;9.48;37.62;96542.00;6219405;23;20169;-88
2023/03/28 09:24:50;;;;;;;3.00;1.37;;;;;;;9.68;38.51;96546.84;6219617;23;20158;-87
2023/03/28 09:27:24;;;;;;;1.70;1.40;;;;;;;9.78;39.09;96544.22;6220073;23;20212;-86
2023/03/28 09:29:54;;;;;;;2.50;1.53;;;;;;;9.26;40.01;96545.78;6219905;23;20208;-87
2023/03/28 09:32:26;;;;;;;1.60;1.50;;;;;;;8.77;40.89;96554.69;6220923;23;20158;-87
2023/03/28 09:34:52;;;;;;;2.97;1.30;;;;;;;8.04;39.44;96548.50;6220566;23;20178;-87
2023/03/28 09:37:28;;;;;;;2.20;1.50;;;;;;;7.51;40.49;96549.72;6221525;23;20188;-86
2023/03/28 09:40:00;;;;;;;2.23;1.33;;;;;;;7.39;41.13;96561.03;6221246;23;20584;-86
2023/03/28 09:42:35;;;;;;;2.63;1.30;;;;;;;7.61;41.83;96562.53;6220505;23;20235;-87
2023/03/28 09:45:07;;;;;;;4.17;1.93;;;;;;;7.55;44.61;96556.19;6221054;23;20678;-88
2023/03/28 09:47:34;;;;;;;2.67;1.70;;;;;;;7.24;44.81;96563.16;6220857;23;20172;-87
2023/03/28 09:50:01;;;;;;;2.80;1.70;;;;;;;7.07;45.75;96556.13;6220759;23;20193;-86
2023/03/28 09:52:29;;;;;;;1.97;1.70;;;;;;;6.85;45.20;96566.56;6220712;23;20509;-86
2023/03/28 09:54:59;;;;;;;2.73;1.80;;;;;;;6.68;45.01;96570.53;6220378;23;20260;-87
2023/03/28 09:57:26;;;;;;;1.90;1.50;;;;;;;6.70;46.16;96560.97;6221672;23;20178;-86
2023/03/28 09:59:52;;;;;;;2.83;1.60;;;;;;;6.71;46.07;96562.59;6220704;23;20197;-86
2023/03/28 10:02:26;;;;;;;2.10;1.67;;;;;;;6.68;46.13;96564.59;6220065;23;20178;-87
2023/03/28 10:04:52;;;;;;;1.67;1.57;;;;;;;7.11;45.00;96562.59;6220577;23;20161;-86
2023/03/28 10:07:33;;;;;;;4.07;1.60;;;;;;;8.02;42.64;96563.22;6220787;23;20517;-87
2023/03/28 10:10:18;;;;;;;2.23;1.57;;;;;;;8.28;42.22;96559.13;6220073;23;20228;-88
2023/03/28 10:12:47;;;;;;;2.67;1.67;;;;;;;8.18;43.13;96555.78;6220832;23;20162;-87
2023/03/28 10:15:31;;;;;;;3.33;1.53;;;;;;;7.86;41.91;96554.31;6221187;23;20189;-86
2023/03/28 10:18:00;;;;;;;2.00;1.37;;;;;;;8.04;42.14;96556.19;6221012;23;20188;-86
2023/03/28 10:20:26;;;;;;;5.43;2.20;;;;;;;8.28;41.46;96547.09;6221149;23;20202;-87
2023/03/28 10:22:55;;;;;;;3.27;1.70;;;;;;;8.26;41.72;96548.22;6220277;23;20188;-88
2023/03/28 10:25:34;;;;;;;1.50;1.37;;;;;;;8.19;41.39;96554.81;6221279;23;20173;-87
2023/03/28 10:28:01;;;;;;;2.33;1.60;;;;;;;8.15;41.59;96543.22;6222407;23;20157;-87
2023/03/28 10:30:29;;;;;;;2.97;1.63;;;;;;;8.13;41.77;96548.47;6219905;23;20185;-87
2023/03/28 10:33:20;;;;;;;3.03;1.67;;;;;;;7.92;41.03;96548.63;6220973;23;20576;-87
2023/03/28 10:35:54;;;;;;;1.87;1.50;;;;;;;7.96;41.84;96555.13;6220696;23;20189;-87
2023/03/28 10:38:22;;;;;;;1.97;1.67;;;;;;;7.82;41.43;96550.41;6221062;23;20415;-88
2023/03/28 10:40:57;;;;;;;2.57;1.40;;;;;;;7.59;41.59;96551.63;6220400;23;20193;-86
2023/03/28 10:43:32;;;;;;;1.93;1.40;;;;;;;7.27;41.37;96546.72;6218474;23;20162;-86
2023/03/28 10:46:01;;;;;;;3.33;1.80;;;;;;;7.17;42.98;96554.38;6220392;23;20165;-88
2023/03/28 10:48:32;;;;;;;1.87;1.40;;;;;;;7.28;41.89;96556.03;6219555;23;20183;-86
2023/03/28 10:51:07;;;;;;;2.67;1.60;;;;;;;7.95;40.96;96550.94;6218888;23;20221;-87
2023/03/28 10:53:42;;;;;;;3.53;1.80;;;;;;;8.59;41.73;96537.47;6219037;23;20184;-86
2023/03/28 10:56:26;;;;;;;1.40;1.20;;;;;;;9.14;38.38;96545.19;6219343;23;20161;-86
2023/03/28 10:59:08;;;;;;;2.37;1.50;;;;;;;9.43;36.34;96537.28;6219679;23;20165;-87
2023/03/28 11:01:42;;;;;;;2.23;1.70;;;;;;;9.76;37.37;96538.41;6218064;23;20158;-88
2023/03/28 11:04:24;;;;;;;3.60;1.67;;;;;;;9.46;37.46;96526.72;6218824;23;20157;-87
2023/03/28 11:06:57;;;;;;;2.80;1.90;;;;;;;8.75;38.11;96536.84;6219132;23;20337;-88
2023/03/28 11:09:35;;;;;;;3.70;2.03;;;;;;;8.36;39.55;96537.94;6218408;23;20158;-87
2023/03/28 11:12:11;;;;;;;2.90;1.90;;;;;;;8.12;40.65;96531.47;6217692;23;20162;-86
2023/03/28 11:14:51;;;;;;;3.13;2.00;;;;;;;8.35;40.07;96539.69;6217696;23;20235;-86
2023/03/28 11:17:26;;;;;;;2.17;1.53;;;;;;;8.91;40.74;96528.53;6219775;23;20837;-86
2023/03/28 11:20:19;;;;;;;2.43;2.00;;;;;;;9.42;39.47;96528.00;6217169;23;20204;-85
2023/03/28 11:22:56;;;;;;;2.07;1.73;;;;;;;9.64;36.83;96535.25;6217104;23;20174;-87
2023/03/28 11:25:32;;;;;;;3.60;1.60;;;;;;;9.77;35.82;96523.78;6218141;23;20158;-87
2023/03/28 11:28:07;;;;;;;1.90;1.70;;;;;;;9.39;36.56;96524.91;6218970;23;20165;-87
2023/03/28 11:30:35;;;;;;;3.27;1.80;;;;;;;9.14;37.44;96514.34;6218850;23;20201;-86
2023/03/28 11:33:08;;;;;;;3.40;1.67;;;;;;;9.15;38.44;96517.75;6218613;23;20178;-86
2023/03/28 11:35:40;;;;;;;2.87;1.63;;;;;;;9.16;38.76;96520.16;6218967;23;20216;-86
2023/03/28 11:38:14;;;;;;;1.50;1.40;;;;;;;9.46;39.32;96519.00;6218574;23;20296;-88
2023/03/28 11:40:50;;;;;;;2.17;1.67;;;;;;;9.84;38.33;96523.03;6173972;23;1023782;-87
2023/03/28 11:43:27;;;;;;;3.73;1.60;;;;;;;10.08;37.46;96514.69;6219392;23;20409;-86
2023/03/28 11:46:01;;;;;;;1.93;1.70;;;;;;;10.22;37.86;96509.03;6219861;23;20161;-88
2023/03/28 11:48:34;;;;;;;1.83;1.70;;;;;;;10.46;38.90;96503.22;6220892;23;20157;-87
2023/03/28 11:51:08;;;;;;;2.23;1.70;;;;;;;10.57;37.02;96502.97;6220351;23;20197;-86
2023/03/28 11:53:42;;;;;;;3.33;1.90;;;;;;;10.50;36.26;96498.56;6222980;23;20184;-88
2023/03/28 11:56:19;;;;;;;1.70;1.60;;;;;;;10.71;35.95;96497.22;6221951;23;20162;-88